createdAt,value
2018-05-24T00:00:44.928Z,11.00
2018-05-24T00:03:20.778Z,8.17
2018-05-24T00:05:56.475Z,9.53
2018-05-24T00:08:32.274Z,10.73
2018-05-24T00:11:07.970Z,7.80
2018-05-24T00:13:43.759Z,8.53
2018-05-24T00:16:19.500Z,11.80
2018-05-24T00:18:55.366Z,6.40
2018-05-24T00:21:31.106Z,12.27
2018-05-24T00:24:06.813Z,7.50
2018-05-24T00:26:42.744Z,10.73
2018-05-24T00:29:18.562Z,6.80
2018-05-24T00:31:54.570Z,14.00
2018-05-24T00:34:30.302Z,9.10
2018-05-24T00:37:06.117Z,5.63
2018-05-24T00:39:42.014Z,7.40
2018-05-24T00:42:17.840Z,7.93
2018-05-24T00:44:53.643Z,5.83
2018-05-24T00:47:29.538Z,8.60
2018-05-24T00:50:05.328Z,7.27
2018-05-24T00:52:41.269Z,5.33
2018-05-24T00:55:23.211Z,12.13
2018-05-24T00:57:59.092Z,6.87
2018-05-24T01:00:34.929Z,9.97
2018-05-24T01:03:10.771Z,6.00
2018-05-24T01:05:46.663Z,5.80
2018-05-24T01:08:22.537Z,12.53
2018-05-24T01:10:58.399Z,9.53
2018-05-24T01:13:34.292Z,6.17
2018-05-24T01:16:10.135Z,5.63
2018-05-24T01:18:45.922Z,6.40
2018-05-24T01:21:21.804Z,6.77
2018-05-24T01:23:57.572Z,5.70
2018-05-24T01:26:33.620Z,6.30
2018-05-24T01:29:09.492Z,4.80
2018-05-24T01:31:45.250Z,6.27
2018-05-24T01:34:21.116Z,5.87
2018-05-24T01:37:02.977Z,7.43
2018-05-24T01:39:38.940Z,8.73
2018-05-24T01:42:14.595Z,8.73
2018-05-24T01:44:50.547Z,7.07
2018-05-24T01:47:26.357Z,5.40
2018-05-24T01:50:02.266Z,7.40
2018-05-24T01:52:38.242Z,15.70
2018-05-24T01:55:14.019Z,9.60
2018-05-24T01:57:49.994Z,7.20
2018-05-24T02:00:25.853Z,7.23
2018-05-24T02:03:01.731Z,4.50
2018-05-24T02:05:37.460Z,5.10
2018-05-24T02:08:13.167Z,7.60
2018-05-24T02:10:48.967Z,4.70
2018-05-24T02:13:24.879Z,5.47
2018-05-24T02:16:00.657Z,15.63
2018-05-24T02:18:36.409Z,4.87
2018-05-24T02:21:12.107Z,6.83
2018-05-24T02:23:47.901Z,8.30
2018-05-24T02:26:23.949Z,3.80
2018-05-24T02:28:59.886Z,4.10
2018-05-24T02:31:35.647Z,8.53
2018-05-24T02:34:11.596Z,7.30
2018-05-24T02:36:47.328Z,4.20
2018-05-24T02:39:23.088Z,15.03
2018-05-24T02:41:58.880Z,8.07
2018-05-24T02:44:34.790Z,9.13
2018-05-24T02:47:10.933Z,7.00
2018-05-24T02:49:46.867Z,4.30
2018-05-24T02:52:22.679Z,6.80
2018-05-24T02:54:59.132Z,3.83
2018-05-24T02:57:34.879Z,5.40
2018-05-24T03:00:10.721Z,3.77
2018-05-24T03:02:46.505Z,5.00
2018-05-24T03:05:22.202Z,6.20
2018-05-24T03:07:58.144Z,5.30
2018-05-24T03:10:33.859Z,4.20
2018-05-24T03:13:09.763Z,3.50
2018-05-24T03:15:45.659Z,4.70
2018-05-24T03:18:21.508Z,4.37
2018-05-24T03:20:57.530Z,3.50
2018-05-24T03:23:33.518Z,4.90
2018-05-24T03:26:09.423Z,6.80
2018-05-24T03:28:45.245Z,4.53
2018-05-24T03:31:21.968Z,5.63
2018-05-24T03:33:57.866Z,3.30
2018-05-24T03:36:33.765Z,11.13
2018-05-24T03:39:09.631Z,3.80
2018-05-24T03:41:45.456Z,4.30
2018-05-24T03:44:21.342Z,6.83
2018-05-24T03:46:57.012Z,5.37
2018-05-24T03:49:32.915Z,14.90
2018-05-24T03:52:09.010Z,7.67
2018-05-24T03:54:44.836Z,7.47
2018-05-24T03:57:20.768Z,3.53
2018-05-24T04:00:02.580Z,5.00
2018-05-24T04:02:44.278Z,5.47
2018-05-24T04:05:20.115Z,12.20
2018-05-24T04:07:56.022Z,8.63
2018-05-24T04:10:31.874Z,4.90
2018-05-24T04:13:07.829Z,4.47
2018-05-24T04:15:43.604Z,5.50
2018-05-24T04:18:19.333Z,13.00
2018-05-24T04:20:55.152Z,7.87
2018-05-24T04:23:31.007Z,7.20
2018-05-24T04:26:06.896Z,9.13
2018-05-24T04:28:42.702Z,6.77
2018-05-24T04:31:18.559Z,13.50
2018-05-24T04:33:54.335Z,5.53
2018-05-24T04:36:31.103Z,6.60
2018-05-24T04:39:06.874Z,5.77
2018-05-24T04:41:42.563Z,11.17
2018-05-24T04:44:18.334Z,12.73
2018-05-24T04:46:57.301Z,13.00
2018-05-24T04:49:33.113Z,8.03
2018-05-24T04:52:08.990Z,8.20
2018-05-24T04:54:44.745Z,9.77
2018-05-24T04:57:20.557Z,8.10
2018-05-24T04:59:56.554Z,13.63
2018-05-24T05:02:32.420Z,9.60
2018-05-24T05:05:08.226Z,9.60
2018-05-24T05:07:44.099Z,9.23
2018-05-24T05:10:20.034Z,6.60
2018-05-24T05:12:55.808Z,10.87
2018-05-24T05:15:31.669Z,8.43
2018-05-24T05:18:08.248Z,27.07
2018-05-24T05:20:44.066Z,6.93
2018-05-24T05:23:19.932Z,8.07
2018-05-24T05:25:55.640Z,9.60
2018-05-24T05:28:31.528Z,12.87
2018-05-24T05:31:07.480Z,9.10
2018-05-24T05:33:43.449Z,10.27
2018-05-24T05:36:19.234Z,10.43
2018-05-24T05:38:55.117Z,11.20
2018-05-24T05:41:30.799Z,8.70
2018-05-24T05:44:06.679Z,11.57
2018-05-24T05:46:42.421Z,13.80
2018-05-24T05:49:19.100Z,9.10
2018-05-24T05:51:54.983Z,8.43
2018-05-24T05:54:30.859Z,14.40
2018-05-24T05:57:06.727Z,8.60
2018-05-24T05:59:42.514Z,13.90
2018-05-24T06:02:18.237Z,8.77
2018-05-24T06:04:54.062Z,14.27
2018-05-24T06:07:29.906Z,16.57
2018-05-24T06:10:05.885Z,14.57
2018-05-24T06:12:41.725Z,13.60
2018-05-24T06:15:17.660Z,14.40
2018-05-24T06:17:53.454Z,19.80
2018-05-24T06:20:29.288Z,12.53
2018-05-24T06:23:05.202Z,11.37
2018-05-24T06:25:40.882Z,12.90
2018-05-24T06:28:17.746Z,14.13
2018-05-24T06:30:53.495Z,18.10
2018-05-24T06:33:29.455Z,10.90
2018-05-24T06:36:05.229Z,12.67
2018-05-24T06:38:41.060Z,13.70
2018-05-24T06:41:16.940Z,11.27
2018-05-24T06:43:52.786Z,14.20
2018-05-24T06:46:28.729Z,15.07
2018-05-24T06:49:05.499Z,11.30
2018-05-24T06:51:41.179Z,24.53
2018-05-24T06:54:17.041Z,9.40
2018-05-24T06:56:53.018Z,12.10
2018-05-24T06:59:28.881Z,11.13
2018-05-24T07:02:04.899Z,13.23
2018-05-24T07:04:40.783Z,12.10
2018-05-24T07:07:16.695Z,20.40
2018-05-24T07:09:52.430Z,13.23
2018-05-24T07:12:28.269Z,12.20
2018-05-24T07:15:03.984Z,11.00
2018-05-24T07:17:39.870Z,13.20
2018-05-24T07:20:15.936Z,11.10
2018-05-24T07:22:51.820Z,14.23
2018-05-24T07:25:27.639Z,13.50
2018-05-24T07:28:03.416Z,13.60
2018-05-24T07:30:39.264Z,11.97
2018-05-24T07:33:15.062Z,10.33
2018-05-24T07:35:51.072Z,11.70
2018-05-24T07:38:27.048Z,12.00
2018-05-24T07:41:02.824Z,12.17
2018-05-24T07:43:38.644Z,13.13
2018-05-24T07:46:14.474Z,9.10
2018-05-24T07:48:50.410Z,8.83
2018-05-24T07:51:27.316Z,9.07
2018-05-24T07:54:02.989Z,10.97
2018-05-24T07:56:38.712Z,15.63
2018-05-24T07:59:14.654Z,9.37
2018-05-24T08:01:50.552Z,11.77
2018-05-24T08:04:26.461Z,10.83
2018-05-24T08:07:02.333Z,8.87
2018-05-24T08:09:38.329Z,8.90
2018-05-24T08:12:15.223Z,11.87
2018-05-24T08:14:50.992Z,13.43
2018-05-24T08:17:27.064Z,10.53
2018-05-24T08:20:05.381Z,17.47
2018-05-24T08:22:41.181Z,12.67
2018-05-24T08:25:17.040Z,10.17
2018-05-24T08:27:52.894Z,12.50
2018-05-24T08:30:29.751Z,9.33
2018-05-24T08:33:05.462Z,22.10
2018-05-24T08:35:41.475Z,17.37
2018-05-24T08:38:17.332Z,14.97
2018-05-24T08:40:53.244Z,18.33
2018-05-24T08:43:29.017Z,12.63
2018-05-24T08:46:05.091Z,15.13
2018-05-24T08:48:40.901Z,15.03
2018-05-24T08:51:16.667Z,12.20
2018-05-24T08:53:52.463Z,17.30
2018-05-24T08:56:28.318Z,14.37
2018-05-24T08:59:04.114Z,10.70
2018-05-24T09:01:40.061Z,11.17
2018-05-24T09:04:15.989Z,13.07
2018-05-24T09:06:51.885Z,13.23
2018-05-24T09:09:27.803Z,12.33
2018-05-24T09:12:03.745Z,13.60
2018-05-24T09:14:39.712Z,11.57
2018-05-24T09:17:15.680Z,11.10
2018-05-24T09:19:51.478Z,13.47
2018-05-24T09:22:27.345Z,16.67
2018-05-24T09:25:03.295Z,14.57
2018-05-24T09:27:40.073Z,13.27
2018-05-24T09:30:15.963Z,19.10
2018-05-24T09:32:51.954Z,17.90
2018-05-24T09:35:27.834Z,13.47
2018-05-24T09:38:03.570Z,16.57
2018-05-24T09:40:39.554Z,12.53
2018-05-24T09:43:15.264Z,15.17
2018-05-24T09:45:51.207Z,14.10
2018-05-24T09:48:27.053Z,15.13
2018-05-24T09:51:02.902Z,19.40
2018-05-24T09:53:38.656Z,12.37
2018-05-24T09:56:15.489Z,15.50
2018-05-24T09:58:51.300Z,18.10
2018-05-24T10:01:27.261Z,16.30
2018-05-24T10:04:03.032Z,21.50
2018-05-24T10:06:38.876Z,18.23
2018-05-24T10:09:15.651Z,13.80
2018-05-24T10:11:51.628Z,15.87
2018-05-24T10:14:27.514Z,15.47
2018-05-24T10:17:03.293Z,23.83
2018-05-24T10:19:39.280Z,16.30
2018-05-24T10:22:15.193Z,17.20
2018-05-24T10:24:49.395Z,15.80
2018-05-24T10:27:23.614Z,26.87
2018-05-24T10:29:58.026Z,15.67
2018-05-24T10:32:32.317Z,15.37
2018-05-24T10:35:06.671Z,16.93
2018-05-24T10:37:40.778Z,17.63
2018-05-24T10:40:14.994Z,18.93
2018-05-24T10:42:49.152Z,21.23
2018-05-24T10:45:23.333Z,25.93
2018-05-24T10:47:58.475Z,30.17
2018-05-24T10:50:32.767Z,17.73
2018-05-24T10:53:07.098Z,19.57
2018-05-24T10:55:41.412Z,21.07
2018-05-24T10:58:15.596Z,29.43
2018-05-24T11:00:49.910Z,19.13
2018-05-24T11:03:24.351Z,19.30
2018-05-24T11:05:59.366Z,21.50
2018-05-24T11:08:33.538Z,23.90
2018-05-24T11:11:07.912Z,16.87
2018-05-24T11:13:42.240Z,18.27
2018-05-24T11:16:16.561Z,19.77
2018-05-24T11:18:50.821Z,19.70
2018-05-24T11:21:25.813Z,17.33
2018-05-24T11:24:00.085Z,21.50
2018-05-24T11:26:34.341Z,19.30
2018-05-24T11:29:08.632Z,20.87
2018-05-24T11:31:43.011Z,18.47
2018-05-24T11:34:17.216Z,22.97
2018-05-24T11:36:51.514Z,22.30
2018-05-24T11:39:25.933Z,17.93
2018-05-24T11:42:00.231Z,19.30
2018-05-24T11:44:34.457Z,25.47
2018-05-24T11:47:08.619Z,28.40
2018-05-24T11:49:43.543Z,23.57
2018-05-24T11:52:17.866Z,18.63
2018-05-24T11:54:51.985Z,25.10
2018-05-24T11:57:26.317Z,19.53
2018-05-24T12:00:00.713Z,25.20
2018-05-24T12:02:35.750Z,20.80
2018-05-24T12:05:09.870Z,18.07
2018-05-24T12:07:44.085Z,19.37
2018-05-24T12:10:18.227Z,24.40
2018-05-24T12:12:56.062Z,24.77
2018-05-24T12:15:30.410Z,17.00
2018-05-24T12:18:04.722Z,18.17
2018-05-24T12:20:39.231Z,20.63
2018-05-24T12:23:13.527Z,15.70
2018-05-24T12:25:47.745Z,19.60
2018-05-24T12:28:22.798Z,16.67
2018-05-24T12:30:56.915Z,16.70
2018-05-24T12:33:31.322Z,15.70
2018-05-24T12:36:05.638Z,27.10
2018-05-24T12:38:39.867Z,18.30
2018-05-24T12:41:14.054Z,17.00
2018-05-24T12:43:49.114Z,13.93
2018-05-24T12:46:23.381Z,14.13
2018-05-24T12:48:57.805Z,20.83
2018-05-24T12:51:31.938Z,12.33
2018-05-24T12:54:06.274Z,16.23
2018-05-24T12:56:40.562Z,18.73
2018-05-24T12:59:15.007Z,10.43
2018-05-24T13:01:49.116Z,10.73
2018-05-24T13:04:23.341Z,13.60
2018-05-24T13:06:57.642Z,10.60
2018-05-24T13:09:32.885Z,13.77
2018-05-24T13:12:07.034Z,14.87
2018-05-24T13:14:46.389Z,29.03
2018-05-24T13:17:20.554Z,8.20
2018-05-24T13:19:54.862Z,11.73
2018-05-24T13:22:29.827Z,7.80
2018-05-24T13:25:04.115Z,8.13
2018-05-24T13:27:38.225Z,9.30
2018-05-24T13:30:13.168Z,10.10
2018-05-24T13:32:47.443Z,9.43
2018-05-24T13:35:21.586Z,10.90
2018-05-24T13:37:55.894Z,10.10
2018-05-24T13:40:31.283Z,8.33
2018-05-24T13:43:05.463Z,9.20
2018-05-24T13:45:39.763Z,10.30
2018-05-24T13:48:15.430Z,9.17
2018-05-24T13:50:50.596Z,11.70
2018-05-24T13:53:24.979Z,11.27
2018-05-24T13:55:59.763Z,9.47
2018-05-24T13:58:34.732Z,13.90
2018-05-24T14:01:10.165Z,11.93
2018-05-24T14:03:45.093Z,14.93
2018-05-24T14:06:19.401Z,13.27
2018-05-24T14:08:54.340Z,12.10
2018-05-24T14:11:29.359Z,26.13
2018-05-24T14:14:03.559Z,12.17
2018-05-24T14:16:37.897Z,11.87
2018-05-24T14:19:12.866Z,13.83
2018-05-24T14:21:47.561Z,16.73
2018-05-24T14:24:21.673Z,14.50
2018-05-24T14:26:55.771Z,15.97
2018-05-24T14:29:29.901Z,14.70
2018-05-24T14:32:04.216Z,14.00
2018-05-24T14:34:38.497Z,17.03
2018-05-24T14:37:12.646Z,22.93
2018-05-24T14:39:46.835Z,18.63
2018-05-24T14:42:21.054Z,18.67
2018-05-24T14:44:55.246Z,15.90
2018-05-24T14:47:29.531Z,17.07
2018-05-24T14:50:03.830Z,21.93
2018-05-24T14:52:39.168Z,15.83
2018-05-24T14:55:13.330Z,23.63
2018-05-24T14:57:48.624Z,24.10
2018-05-24T15:00:22.850Z,17.20
2018-05-24T15:02:58.691Z,19.93
2018-05-24T15:05:34.110Z,23.13
2018-05-24T15:08:09.047Z,20.47
2018-05-24T15:10:43.276Z,17.90
2018-05-24T15:13:31.538Z,14.40
2018-05-24T15:16:05.854Z,16.30
2018-05-24T15:18:41.765Z,16.67
2018-05-24T15:21:17.662Z,18.30
2018-05-24T15:23:51.923Z,17.60
2018-05-24T15:26:27.327Z,20.80
2018-05-24T15:29:01.847Z,20.53
2018-05-24T15:31:36.783Z,22.33
2018-05-24T15:34:12.427Z,20.40
2018-05-24T15:36:46.847Z,17.80
2018-05-24T15:39:21.106Z,19.70
2018-05-24T15:41:55.523Z,23.93
2018-05-24T15:44:30.708Z,25.43
2018-05-24T15:47:04.957Z,24.10
2018-05-24T15:49:39.226Z,19.73
2018-05-24T15:52:13.384Z,21.87
2018-05-24T15:54:49.425Z,21.63
2018-05-24T15:57:25.253Z,24.97
2018-05-24T16:00:01.141Z,25.30
2018-05-24T16:02:36.880Z,21.43
2018-05-24T16:05:12.584Z,22.23
2018-05-24T16:07:48.403Z,24.33
2018-05-24T16:10:24.358Z,31.57
2018-05-24T16:13:00.338Z,26.77
2018-05-24T16:15:36.342Z,27.00
2018-05-24T16:18:12.104Z,23.77
2018-05-24T16:20:47.837Z,32.80
2018-05-24T16:23:23.714Z,25.87
2018-05-24T16:25:59.745Z,25.57
2018-05-24T16:28:35.454Z,24.10
2018-05-24T16:31:11.190Z,26.43
2018-05-24T16:33:46.149Z,25.97
2018-05-24T16:36:20.326Z,25.27
2018-05-24T16:38:54.600Z,32.00
2018-05-24T16:41:28.763Z,26.53
2018-05-24T16:44:02.964Z,25.73
2018-05-24T16:46:37.332Z,23.77
2018-05-24T16:49:11.575Z,22.83
2018-05-24T16:51:45.889Z,28.73
2018-05-24T16:54:21.002Z,24.10
2018-05-24T16:56:55.310Z,21.50
2018-05-24T16:59:29.693Z,22.13
2018-05-24T17:02:04.276Z,23.30
2018-05-24T17:04:39.208Z,19.47
2018-05-24T17:07:13.707Z,20.80
2018-05-24T17:09:47.934Z,24.07
2018-05-24T17:12:22.253Z,29.13
2018-05-24T17:14:56.561Z,20.23
2018-05-24T17:17:32.901Z,24.50
2018-05-24T17:20:07.274Z,24.53
2018-05-24T17:22:41.449Z,23.90
2018-05-24T17:25:15.835Z,22.50
2018-05-24T17:27:50.015Z,25.00
2018-05-24T17:30:24.343Z,24.03
2018-05-24T17:32:59.711Z,24.77
2018-05-24T17:35:34.014Z,25.10
2018-05-24T17:38:08.343Z,24.47
2018-05-24T17:40:43.680Z,24.50
2018-05-24T17:43:18.657Z,21.80
2018-05-24T17:45:54.262Z,20.23
2018-05-24T17:48:28.345Z,23.50
2018-05-24T17:51:02.787Z,19.97
2018-05-24T17:53:36.871Z,21.93
2018-05-24T17:56:11.051Z,20.33
2018-05-24T17:58:46.030Z,27.90
2018-05-24T18:01:20.686Z,23.73
2018-05-24T18:03:54.855Z,25.70
2018-05-24T18:06:29.267Z,24.40
2018-05-24T18:09:03.628Z,25.10
2018-05-24T18:11:37.843Z,23.00
2018-05-24T18:14:13.422Z,26.13
2018-05-24T18:16:47.606Z,25.83
2018-05-24T18:19:21.858Z,25.30
2018-05-24T18:21:56.431Z,27.53
2018-05-24T18:24:30.610Z,27.40
2018-05-24T18:27:07.230Z,27.17
2018-05-24T18:29:43.307Z,27.73
2018-05-24T18:32:19.126Z,32.37
2018-05-24T18:34:55.190Z,28.20
2018-05-24T18:37:30.855Z,29.17
2018-05-24T18:40:06.789Z,32.70
2018-05-24T18:42:42.470Z,30.37
2018-05-24T18:45:18.377Z,32.60
2018-05-24T18:47:54.210Z,30.87
2018-05-24T18:50:30.953Z,28.43
2018-05-24T18:53:06.748Z,29.60
2018-05-24T18:55:42.589Z,30.30
2018-05-24T18:58:18.481Z,32.30
2018-05-24T19:00:54.211Z,31.13
2018-05-24T19:03:29.894Z,29.93
2018-05-24T19:06:05.663Z,31.30
2018-05-24T19:08:41.695Z,30.97
2018-05-24T19:11:18.433Z,38.87
2018-05-24T19:13:54.258Z,36.47
2018-05-24T19:16:30.188Z,35.73
2018-05-24T19:19:06.092Z,29.50
2018-05-24T19:21:41.824Z,33.47
2018-05-24T19:24:17.723Z,29.13
2018-05-24T19:26:54.388Z,32.47
2018-05-24T19:29:31.037Z,27.30
2018-05-24T19:32:06.913Z,37.73
2018-05-24T19:34:42.739Z,31.53
2018-05-24T19:37:18.519Z,27.27
2018-05-24T19:39:54.258Z,28.90
2018-05-24T19:42:30.008Z,26.83
2018-05-24T19:45:05.894Z,27.43
2018-05-24T19:47:42.629Z,30.03
2018-05-24T19:50:18.351Z,30.60
2018-05-24T19:52:54.220Z,30.63
2018-05-24T19:55:30.188Z,28.83
2018-05-24T19:58:05.920Z,27.17
2018-05-24T20:00:41.587Z,27.50
2018-05-24T20:03:17.341Z,31.33
2018-05-24T20:05:53.145Z,27.17
2018-05-24T20:08:28.924Z,26.07
2018-05-24T20:11:04.789Z,24.97
2018-05-24T20:13:40.579Z,26.30
2018-05-24T20:16:16.284Z,26.87
2018-05-24T20:18:52.070Z,31.87
2018-05-24T20:21:27.806Z,26.33
2018-05-24T20:24:03.550Z,30.03
2018-05-24T20:26:40.121Z,31.80
2018-05-24T20:29:15.943Z,31.20
2018-05-24T20:31:52.171Z,30.20
2018-05-24T20:34:27.910Z,33.30
2018-05-24T20:37:03.822Z,29.00
2018-05-24T20:39:39.700Z,28.00
2018-05-24T20:42:15.523Z,31.07
2018-05-24T20:44:51.392Z,31.70
2018-05-24T20:47:27.269Z,33.07
2018-05-24T20:50:03.201Z,33.20
2018-05-24T20:52:38.923Z,29.73
2018-05-24T20:55:14.806Z,40.50
2018-05-24T20:57:50.481Z,32.83
2018-05-24T21:00:27.289Z,37.73
2018-05-24T21:03:03.096Z,39.30
2018-05-24T21:05:39.025Z,35.17
2018-05-24T21:08:14.853Z,33.00
2018-05-24T21:10:50.743Z,33.80
2018-05-24T21:13:26.569Z,35.13
2018-05-24T21:16:02.275Z,36.27
2018-05-24T21:18:40.021Z,38.27
2018-05-24T21:21:15.773Z,45.30
2018-05-24T21:23:51.729Z,39.87
2018-05-24T21:26:28.582Z,35.03
2018-05-24T21:29:04.258Z,37.07
2018-05-24T21:31:40.082Z,42.43
2018-05-24T21:34:15.935Z,44.93
2018-05-24T21:36:51.755Z,41.33
2018-05-24T21:39:27.564Z,41.07
2018-05-24T21:42:03.314Z,46.20
2018-05-24T21:44:39.011Z,43.90
2018-05-24T21:47:14.836Z,42.27
2018-05-24T21:49:50.773Z,39.07
2018-05-24T21:52:26.476Z,45.30
2018-05-24T21:55:02.378Z,47.00
2018-05-24T21:57:38.117Z,44.70
2018-05-24T22:00:13.879Z,51.83
2018-05-24T22:02:49.624Z,43.70
2018-05-24T22:05:25.322Z,43.73
2018-05-24T22:08:01.322Z,43.83
2018-05-24T22:10:36.985Z,44.13
2018-05-24T22:13:12.725Z,48.07
2018-05-24T22:15:48.596Z,44.73
2018-05-24T22:18:24.335Z,47.07
2018-05-24T22:21:01.050Z,44.40
2018-05-24T22:23:36.841Z,47.73
2018-05-24T22:26:12.519Z,40.20
2018-05-24T22:28:48.556Z,45.23
2018-05-24T22:31:24.204Z,46.07
2018-05-24T22:34:00.042Z,49.57
2018-05-24T22:36:35.838Z,43.50
2018-05-24T22:39:11.756Z,43.60
2018-05-24T22:41:47.480Z,45.73
2018-05-24T22:44:23.365Z,44.00
2018-05-24T22:46:59.073Z,48.63
2018-05-24T22:49:34.966Z,47.30
2018-05-24T22:52:10.920Z,48.13
2018-05-24T22:54:46.734Z,49.00
2018-05-24T22:57:22.753Z,53.20
2018-05-24T22:59:58.677Z,44.30
2018-05-24T23:02:34.333Z,52.00
2018-05-24T23:05:10.293Z,49.83
2018-05-24T23:07:46.094Z,48.73
2018-05-24T23:10:21.993Z,46.67
2018-05-24T23:12:57.786Z,50.60
2018-05-24T23:15:33.706Z,49.60
2018-05-24T23:18:09.533Z,59.97
2018-05-24T23:20:46.247Z,54.03
2018-05-24T23:23:21.955Z,50.33
2018-05-24T23:25:57.850Z,52.67
2018-05-24T23:28:33.771Z,65.33
2018-05-24T23:31:09.734Z,54.70
2018-05-24T23:33:45.527Z,52.53
2018-05-24T23:36:21.217Z,53.13
2018-05-24T23:38:56.966Z,58.23
2018-05-24T23:41:32.834Z,57.17
2018-05-24T23:44:08.724Z,57.03
2018-05-24T23:46:44.437Z,55.73
2018-05-24T23:49:20.270Z,58.20
2018-05-24T23:51:56.084Z,59.93
2018-05-24T23:54:31.834Z,55.43
2018-05-24T23:57:07.460Z,55.87
2018-05-24T23:59:43.339Z,56.87
